Time;durP1;ratioP1;P1;durP2;ratioP2;P2;SDS_P1;SDS_P2;PMS_P1;PMS_P2;Temp;Humidity;BMP_temperature;BMP_pressure;BME280_temperature;BME280_humidity;BME280_pressure;Samples;Min_cycle;Max_cycle;Signal;HPM_P1;HPM_P2
2023/08/24 00:00:45;;;;;;;3.75;2.72;;;17.20;99.90;;;;;;5033325;28;20252;-83
2023/08/24 00:03:11;;;;;;;2.92;2.55;;;17.10;99.90;;;;;;5015584;28;20189;-80
2023/08/24 00:05:37;;;;;;;3.33;2.97;;;16.80;99.90;;;;;;5015447;28;20202;-81
2023/08/24 00:08:07;;;;;;;3.80;2.85;;;16.80;99.90;;;;;;5032862;28;20187;-81
2023/08/24 00:10:34;;;;;;;3.05;2.65;;;16.80;99.90;;;;;;5033391;28;20209;-81
2023/08/24 00:12:59;;;;;;;3.30;2.50;;;16.80;99.90;;;;;;5033190;28;20204;-81
2023/08/24 00:15:25;;;;;;;2.75;2.50;;;17.10;99.90;;;;;;5015637;28;20190;-81
2023/08/24 00:17:50;;;;;;;2.72;2.47;;;16.90;99.90;;;;;;5033145;28;20202;-80
2023/08/24 00:20:16;;;;;;;5.43;2.88;;;16.90;99.90;;;;;;5015537;28;20178;-82
2023/08/24 00:22:42;;;;;;;3.97;2.67;;;17.20;99.90;;;;;;5032814;28;20190;-81
2023/08/24 00:25:08;;;;;;;6.05;2.80;;;17.10;99.90;;;;;;5032686;28;20198;-79
2023/08/24 00:27:35;;;;;;;6.47;2.70;;;17.10;1.00;;;;;;5015181;28;20175;-81
2023/08/24 00:30:06;;;;;;;4.03;2.70;;;17.00;1.00;;;;;;5032976;28;20254;-81
2023/08/24 00:32:34;;;;;;;3.58;2.83;;;16.90;1.00;;;;;;5032858;28;20208;-80
2023/08/24 00:35:00;;;;;;;3.08;2.78;;;16.90;4.10;;;;;;5017148;28;20645;-81
2023/08/24 00:37:26;;;;;;;2.80;2.60;;;16.80;1.00;;;;;;5036060;28;20225;-81
2023/08/24 00:39:51;;;;;;;3.50;2.80;;;16.80;1.00;;;;;;5036509;28;20198;-81
2023/08/24 00:42:17;;;;;;;3.20;2.85;;;17.10;1.00;;;;;;5018656;28;20243;-80
2023/08/24 00:44:43;;;;;;;4.32;3.10;;;16.60;1.00;;;;;;5018871;28;20205;-80
2023/08/24 00:47:09;;;;;;;3.90;2.80;;;16.60;84.20;;;;;;5036711;28;20203;-80
2023/08/24 00:49:35;;;;;;;3.92;2.58;;;16.90;65.20;;;;;;5018616;28;20601;-81
2023/08/24 00:52:00;;;;;;;2.58;2.38;;;16.60;99.90;;;;;;5018622;28;20202;-81
2023/08/24 00:54:26;;;;;;;3.10;2.80;;;16.70;99.90;;;;;;5018950;28;20179;-82
2023/08/24 00:56:53;;;;;;;4.75;2.80;;;16.60;99.90;;;;;;5036763;28;20653;-80
2023/08/24 00:59:19;;;;;;;5.72;2.75;;;16.50;99.90;;;;;;5036696;28;20198;-80
2023/08/24 01:01:46;;;;;;;2.40;2.20;;;16.40;1.00;;;;;;5019160;28;20179;-81
2023/08/24 01:04:13;;;;;;;3.17;2.63;;;16.70;99.90;;;;;;5036115;28;20175;-81
2023/08/24 01:06:38;;;;;;;3.53;2.38;;;16.40;1.00;;;;;;5036198;28;20341;-80
2023/08/24 01:09:06;;;;;;;3.30;3.00;;;16.60;1.00;;;;;;5036135;28;20282;-80
2023/08/24 01:11:37;;;;;;;5.97;2.50;;;16.50;99.90;;;;;;5018507;28;20657;-80
2023/08/24 01:14:34;;;;;;;3.10;2.80;;;16.70;99.90;;;;;;5018357;28;20664;-80
2023/08/24 01:17:03;;;;;;;3.53;2.67;;;16.60;99.90;;;;;;4984698;28;20214;-81
2023/08/24 01:19:44;;;;;;;3.15;2.53;;;16.50;99.90;;;;;;5035702;28;20610;-81
2023/08/24 01:22:43;;;;;;;3.75;2.75;;;16.90;99.90;;;;;;5035900;28;20203;-80
2023/08/24 01:25:17;;;;;;;3.65;3.03;;;16.70;99.90;;;;;;5017802;28;20203;-80
2023/08/24 01:27:43;;;;;;;5.30;2.70;;;16.70;99.90;;;;;;5035473;28;20209;-81
2023/08/24 01:30:10;;;;;;;3.53;2.80;;;16.70;99.90;;;;;;5017983;28;20179;-81
2023/08/24 01:32:36;;;;;;;3.40;2.58;;;16.60;99.90;;;;;;5035505;28;20508;-80
2023/08/24 01:35:05;;;;;;;5.65;2.88;;;16.60;99.90;;;;;;5017459;28;20179;-82
2023/08/24 01:37:31;;;;;;;4.05;2.60;;;16.40;99.90;;;;;;5017274;28;20183;-81
2023/08/24 01:40:14;;;;;;;2.97;2.60;;;16.40;99.90;;;;;;5017816;28;20194;-80
2023/08/24 01:42:51;;;;;;;2.88;2.58;;;16.40;99.90;;;;;;5036525;28;20182;-81
2023/08/24 01:45:18;;;;;;;3.28;2.50;;;16.50;99.90;;;;;;5035599;28;20203;-82
2023/08/24 01:47:47;;;;;;;2.92;2.72;;;16.60;99.90;;;;;;5017330;28;20237;-81
2023/08/24 01:50:13;;;;;;;3.13;2.30;;;16.40;99.90;;;;;;5018191;28;20190;-80
2023/08/24 01:52:39;;;;;;;4.20;2.85;;;16.60;99.90;;;;;;5018035;28;20179;-81
2023/08/24 01:55:06;;;;;;;3.00;2.70;;;16.50;99.90;;;;;;5035784;28;20547;-80
2023/08/24 01:57:31;;;;;;;4.38;2.47;;;16.30;99.90;;;;;;5017951;28;20269;-82
2023/08/24 01:59:57;;;;;;;4.55;3.00;;;16.30;99.90;;;;;;5035784;28;20214;-80
2023/08/24 02:02:24;;;;;;;4.68;2.80;;;16.30;99.90;;;;;;5035465;28;20186;-79
2023/08/24 02:04:49;;;;;;;3.10;2.70;;;16.60;99.90;;;;;;5035635;28;20249;-81
2023/08/24 02:07:15;;;;;;;4.70;2.88;;;16.30;99.90;;;;;;5017645;28;20179;-80
2023/08/24 02:09:40;;;;;;;4.97;2.58;;;16.30;99.90;;;;;;5017807;28;20203;-80
2023/08/24 02:12:06;;;;;;;3.22;2.70;;;16.30;99.90;;;;;;5035935;28;20209;-82
2023/08/24 02:14:32;;;;;;;3.22;2.92;;;16.30;99.90;;;;;;5035638;28;20541;-83
2023/08/24 02:16:57;;;;;;;3.05;2.85;;;16.10;99.90;;;;;;5035219;28;20203;-80
2023/08/24 02:19:23;;;;;;;3.42;2.60;;;16.20;99.90;;;;;;5035556;28;20249;-80
2023/08/24 02:21:49;;;;;;;4.15;3.05;;;16.10;99.90;;;;;;5017890;28;20179;-80
2023/08/24 02:24:14;;;;;;;5.03;2.70;;;16.10;99.90;;;;;;5035359;28;20700;-81
2023/08/24 02:26:40;;;;;;;3.83;2.95;;;16.00;99.90;;;;;;5035353;28;20249;-80
2023/08/24 02:29:06;;;;;;;4.60;3.08;;;16.30;99.90;;;;;;5035646;28;20195;-81
2023/08/24 02:31:31;;;;;;;3.22;2.83;;;16.00;99.90;;;;;;5034652;28;20538;-81
2023/08/24 02:33:57;;;;;;;3.33;3.03;;;16.00;99.90;;;;;;5034097;28;20179;-80
2023/08/24 02:36:22;;;;;;;3.03;2.72;;;15.70;99.90;;;;;;5034530;28;20179;-81
2023/08/24 02:38:48;;;;;;;3.42;3.13;;;16.10;99.90;;;;;;5034324;28;20282;-80
2023/08/24 02:41:14;;;;;;;5.47;2.80;;;15.70;99.90;;;;;;5016664;28;20278;-81
2023/08/24 02:43:40;;;;;;;3.80;3.50;;;15.80;1.00;;;;;;5034802;28;20186;-80
2023/08/24 02:46:08;;;;;;;2.88;2.67;;;15.90;99.90;;;;;;5034597;28;20195;-80
2023/08/24 02:48:34;;;;;;;4.20;2.60;;;15.90;1.00;;;;;;5034354;28;20195;-80
2023/08/24 02:51:02;;;;;;;3.60;3.30;;;16.00;1.00;;;;;;5017352;28;20760;-80
2023/08/24 02:53:28;;;;;;;3.72;3.00;;;16.00;99.90;;;;;;5034261;28;20171;-80
2023/08/24 02:55:54;;;;;;;3.20;2.88;;;16.00;1.00;;;;;;5016643;28;20182;-83
2023/08/24 02:58:20;;;;;;;3.00;2.80;;;16.00;99.90;;;;;;5034257;28;20194;-80
2023/08/24 03:00:46;;;;;;;4.60;3.05;;;16.00;99.90;;;;;;5034762;28;20175;-81
2023/08/24 03:03:15;;;;;;;5.65;3.20;;;15.90;99.90;;;;;;5016399;28;20185;-80
2023/08/24 03:05:50;;;;;;;3.60;2.70;;;16.00;99.90;;;;;;5016197;28;20203;-79
2023/08/24 03:08:16;;;;;;;5.40;3.33;;;15.90;1.00;;;;;;5016494;28;20217;-82
2023/08/24 03:10:42;;;;;;;2.95;2.40;;;15.90;99.90;;;;;;5034239;28;20171;-79
2023/08/24 03:13:07;;;;;;;3.28;2.92;;;16.10;1.00;;;;;;5016333;28;20175;-80
2023/08/24 03:15:35;;;;;;;2.60;2.40;;;16.20;1.00;;;;;;5016424;28;20186;-80
2023/08/24 03:18:00;;;;;;;3.78;2.90;;;16.00;1.00;;;;;;5034028;28;20210;-81
2023/08/24 03:20:26;;;;;;;3.33;2.65;;;15.80;99.90;;;;;;5033757;28;20176;-80
2023/08/24 03:22:52;;;;;;;2.70;2.47;;;16.00;1.00;;;;;;5033618;28;20241;-80
2023/08/24 03:25:17;;;;;;;3.03;2.67;;;16.00;1.00;;;;;;5015835;28;20199;-80
2023/08/24 03:27:43;;;;;;;3.15;2.72;;;16.00;1.00;;;;;;5016065;28;20281;-79
2023/08/24 03:30:09;;;;;;;3.63;3.13;;;16.00;1.00;;;;;;5015899;28;20190;-80
2023/08/24 03:32:34;;;;;;;3.22;2.92;;;16.00;1.00;;;;;;5015452;28;20221;-80
2023/08/24 03:35:00;;;;;;;4.00;3.05;;;16.00;99.90;;;;;;5015493;28;20190;-80
2023/08/24 03:37:25;;;;;;;4.07;3.40;;;15.70;1.00;;;;;;5015346;28;20730;-81
2023/08/24 03:39:51;;;;;;;3.13;2.83;;;16.00;99.90;;;;;;5015261;28;20187;-80
2023/08/24 03:42:17;;;;;;;2.90;2.60;;;16.20;1.00;;;;;;5033141;28;20175;-80
2023/08/24 03:44:42;;;;;;;2.90;2.70;;;16.30;1.00;;;;;;5032353;28;20254;-81
2023/08/24 03:47:08;;;;;;;5.07;2.80;;;15.80;1.00;;;;;;5014713;28;20225;-81
2023/08/24 03:49:34;;;;;;;5.03;2.78;;;15.90;1.00;;;;;;5032476;28;20237;-80
2023/08/24 03:52:00;;;;;;;3.67;3.08;;;15.80;1.00;;;;;;5033231;28;20556;-80
2023/08/24 03:54:25;;;;;;;3.33;3.03;;;15.70;99.90;;;;;;5034187;28;20254;-82
2023/08/24 03:56:51;;;;;;;2.92;2.58;;;15.50;99.90;;;;;;5016257;28;20182;-80
2023/08/24 03:59:17;;;;;;;4.72;2.88;;;16.20;1.00;;;;;;5016056;28;20700;-81
2023/08/24 04:01:42;;;;;;;4.07;2.88;;;15.80;99.90;;;;;;5034109;28;20175;-80
2023/08/24 04:04:08;;;;;;;3.53;3.22;;;15.70;1.00;;;;;;5016269;28;20206;-80
2023/08/24 04:06:33;;;;;;;10.60;3.45;;;15.70;1.00;;;;;;5033822;28;20310;-81
2023/08/24 04:08:59;;;;;;;3.42;3.10;;;15.70;99.90;;;;;;5034589;28;20687;-82
2023/08/24 04:11:24;;;;;;;3.28;2.60;;;15.90;1.00;;;;;;5020835;28;20248;-80
2023/08/24 04:13:50;;;;;;;4.65;2.70;;;15.80;1.00;;;;;;5019971;28;20175;-80
2023/08/24 04:16:15;;;;;;;5.93;2.90;;;15.60;1.00;;;;;;5020101;28;20569;-80
2023/08/24 04:18:42;;;;;;;2.90;2.50;;;15.60;1.00;;;;;;5019795;28;20202;-80
2023/08/24 04:21:07;;;;;;;4.07;2.63;;;15.70;99.90;;;;;;5037781;28;20228;-80
2023/08/24 04:23:33;;;;;;;3.25;2.78;;;15.60;1.00;;;;;;5019595;28;20550;-82
2023/08/24 04:25:58;;;;;;;3.97;3.13;;;15.60;1.00;;;;;;5019700;28;20207;-82
2023/08/24 04:28:24;;;;;;;5.22;3.65;;;15.90;1.00;;;;;;5019426;28;20199;-80
2023/08/24 04:30:56;;;;;;;4.97;3.60;;;15.70;1.00;;;;;;5019497;28;20178;-80
2023/08/24 04:33:22;;;;;;;4.53;3.35;;;15.90;1.00;;;;;;5036831;28;20641;-81
2023/08/24 04:35:49;;;;;;;3.72;3.08;;;15.50;1.00;;;;;;5019296;28;20179;-80
2023/08/24 04:38:15;;;;;;;4.88;3.88;;;15.80;99.90;;;;;;5036940;28;20720;-82
2023/08/24 04:40:52;;;;;;;4.80;2.85;;;15.90;99.90;;;;;;5037115;28;20195;-80
2023/08/24 04:43:18;;;;;;;4.45;3.00;;;15.90;99.90;;;;;;5019158;28;20182;-80
2023/08/24 04:45:52;;;;;;;5.13;3.17;;;15.80;99.90;;;;;;5019310;28;20214;-80
2023/08/24 04:48:21;;;;;;;4.32;3.10;;;15.90;99.90;;;;;;5036968;28;20270;-80
2023/08/24 04:50:48;;;;;;;4.15;3.15;;;16.10;99.90;;;;;;5019409;28;20175;-81
2023/08/24 04:53:14;;;;;;;5.70;3.53;;;16.00;99.90;;;;;;5037004;28;20514;-82
2023/08/24 04:55:41;;;;;;;3.70;3.05;;;16.00;99.90;;;;;;5036687;28;20675;-80
2023/08/24 04:58:08;;;;;;;4.32;3.60;;;16.00;99.90;;;;;;5019007;28;20221;-80
2023/08/24 05:00:34;;;;;;;3.30;3.00;;;15.80;99.90;;;;;;5036965;28;20179;-80
2023/08/24 05:03:04;;;;;;;6.15;3.65;;;16.10;99.90;;;;;;5036588;28;20171;-80
2023/08/24 05:05:31;;;;;;;9.57;3.95;;;16.20;99.90;;;;;;5018947;28;20233;-80
2023/08/24 05:07:57;;;;;;;5.22;4.00;;;16.20;99.90;;;;;;5036473;28;20221;-80
2023/08/24 05:10:23;;;;;;;4.63;3.22;;;16.10;99.90;;;;;;5018683;28;20178;-80
2023/08/24 05:12:48;;;;;;;4.53;3.65;;;16.00;99.90;;;;;;5036489;28;20177;-81
2023/08/24 05:15:14;;;;;;;3.53;2.85;;;16.10;99.90;;;;;;5018990;28;20549;-80
2023/08/24 05:17:40;;;;;;;3.95;2.83;;;16.50;99.90;;;;;;5018552;28;20229;-80
2023/08/24 05:20:08;;;;;;;3.58;3.22;;;16.60;99.90;;;;;;5036245;28;20186;-82
2023/08/24 05:22:33;;;;;;;3.78;3.03;;;16.40;99.90;;;;;;5036629;28;20261;-81
2023/08/24 05:24:59;;;;;;;3.28;2.88;;;16.50;99.20;;;;;;5018770;28;20643;-81
2023/08/24 05:27:25;;;;;;;3.58;2.80;;;16.60;53.10;;;;;;5036611;28;20187;-81
2023/08/24 05:29:50;;;;;;;4.25;2.80;;;16.70;44.80;;;;;;5036539;28;20208;-80
2023/08/24 05:32:16;;;;;;;3.88;3.33;;;16.80;15.00;;;;;;5036714;28;20271;-80
2023/08/24 05:34:42;;;;;;;6.13;3.00;;;17.20;9.30;;;;;;5035751;28;20175;-80
2023/08/24 05:37:07;;;;;;;3.78;3.30;;;17.40;1.00;;;;;;5018831;28;20203;-80
2023/08/24 05:39:33;;;;;;;3.97;3.05;;;17.70;1.00;;;;;;5036781;28;20227;-82
2023/08/24 05:41:58;;;;;;;4.85;3.72;;;17.80;1.00;;;;;;5037079;28;20179;-82
2023/08/24 05:44:24;;;;;;;4.05;3.63;;;18.00;1.00;;;;;;5037088;28;20171;-80
2023/08/24 05:46:50;;;;;;;3.53;3.17;;;18.00;1.00;;;;;;5018663;28;20217;-79
2023/08/24 05:49:15;;;;;;;3.90;3.40;;;18.40;1.00;;;;;;5036679;28;20206;-80
2023/08/24 05:51:41;;;;;;;3.20;2.53;;;18.60;1.00;;;;;;5036555;28;20175;-82
2023/08/24 05:54:07;;;;;;;3.50;2.60;;;18.80;1.00;;;;;;5037034;28;20170;-80
2023/08/24 05:56:32;;;;;;;3.60;3.30;;;19.00;1.00;;;;;;5036230;28;20179;-81
2023/08/24 05:58:58;;;;;;;3.22;2.92;;;19.20;1.00;;;;;;5036149;28;20195;-79
2023/08/24 06:01:24;;;;;;;2.88;2.63;;;19.30;1.00;;;;;;5035660;28;20190;-81
2023/08/24 06:03:50;;;;;;;3.15;2.95;;;19.50;99.90;;;;;;5036009;28;20179;-79
2023/08/24 06:06:16;;;;;;;3.25;2.72;;;19.70;1.00;;;;;;5017771;28;20199;-81
2023/08/24 06:08:42;;;;;;;4.60;3.30;;;19.80;99.90;;;;;;5017542;28;20574;-80
2023/08/24 06:11:08;;;;;;;4.78;3.55;;;19.80;99.90;;;;;;5035985;28;20249;-80
2023/08/24 06:13:34;;;;;;;3.70;3.38;;;19.70;99.90;;;;;;5017815;28;20178;-80
2023/08/24 06:16:00;;;;;;;4.18;3.30;;;19.60;99.90;;;;;;5017185;28;20187;-81
2023/08/24 06:18:25;;;;;;;4.80;3.20;;;19.70;1.00;;;;;;5017437;28;20202;-80
2023/08/24 06:20:51;;;;;;;5.10;3.15;;;19.80;1.00;;;;;;5035271;28;20182;-80
2023/08/24 06:23:17;;;;;;;4.80;2.95;;;19.90;1.00;;;;;;5035384;28;20186;-80
2023/08/24 06:25:44;;;;;;;4.00;2.60;;;20.10;1.00;;;;;;5034890;28;20703;-80
2023/08/24 06:28:10;;;;;;;4.00;3.03;;;20.30;99.90;;;;;;5035536;28;20265;-81
2023/08/24 06:30:39;;;;;;;6.97;3.42;;;20.40;99.90;;;;;;5035153;28;20641;-80
2023/08/24 06:33:06;;;;;;;13.10;4.10;;;20.40;99.90;;;;;;5016507;28;20187;-80
2023/08/24 06:35:33;;;;;;;4.40;4.00;;;20.40;99.90;;;;;;5016571;28;20560;-80
2023/08/24 06:37:59;;;;;;;5.85;4.15;;;20.20;99.90;;;;;;5016901;28;20202;-80
2023/08/24 06:40:24;;;;;;;4.30;3.90;;;20.00;99.90;;;;;;5016956;28;20682;-80
2023/08/24 06:42:50;;;;;;;5.95;4.00;;;20.00;1.00;;;;;;5034067;28;20175;-82
2023/08/24 06:45:18;;;;;;;4.47;4.07;;;19.90;1.00;;;;;;5016480;28;20649;-80
2023/08/24 06:47:43;;;;;;;4.03;3.63;;;19.90;1.00;;;;;;5034102;28;20205;-80
2023/08/24 06:50:09;;;;;;;6.20;4.00;;;20.00;1.00;;;;;;5016274;28;20262;-80
2023/08/24 06:52:35;;;;;;;4.40;4.00;;;20.00;1.00;;;;;;5033917;28;20178;-80
2023/08/24 06:55:02;;;;;;;5.03;4.03;;;20.10;1.00;;;;;;5016180;28;20186;-82
2023/08/24 06:57:27;;;;;;;5.13;4.55;;;20.20;1.00;;;;;;5033681;28;20179;-80
2023/08/24 06:59:53;;;;;;;4.88;4.45;;;20.30;1.00;;;;;;5015909;28;20598;-80
2023/08/24 07:02:19;;;;;;;6.45;4.10;;;20.40;1.00;;;;;;5015623;28;20186;-80
2023/08/24 07:04:44;;;;;;;5.28;4.78;;;20.40;1.00;;;;;;5032934;28;20182;-80
2023/08/24 07:07:10;;;;;;;5.25;4.75;;;20.40;1.00;;;;;;5033220;28;20221;-80
2023/08/24 07:09:36;;;;;;;4.90;4.50;;;20.30;1.00;;;;;;5033390;28;20282;-80
2023/08/24 07:12:03;;;;;;;5.22;4.30;;;20.30;1.00;;;;;;5032858;28;20174;-81
2023/08/24 07:14:29;;;;;;;3.97;3.63;;;20.30;1.00;;;;;;5032638;28;20254;-81
2023/08/24 07:16:54;;;;;;;4.50;4.10;;;20.40;99.90;;;;;;5015729;28;20716;-80
2023/08/24 07:19:20;;;;;;;5.22;4.00;;;20.40;1.00;;;;;;5016938;28;20544;-81
2023/08/24 07:21:46;;;;;;;4.13;3.72;;;20.40;1.00;;;;;;5034547;28;20186;-81
2023/08/24 07:24:11;;;;;;;4.13;3.58;;;20.50;99.90;;;;;;5016208;28;20298;-80
2023/08/24 07:26:37;;;;;;;4.85;3.72;;;20.50;99.90;;;;;;5033924;28;20213;-81
2023/08/24 07:29:03;;;;;;;4.45;4.05;;;20.60;99.90;;;;;;5016257;28;20569;-80
2023/08/24 07:31:28;;;;;;;4.20;3.90;;;20.80;99.90;;;;;;5034373;28;20179;-82
2023/08/24 07:33:54;;;;;;;4.20;3.90;;;20.80;99.90;;;;;;5034354;28;20167;-80
2023/08/24 07:36:20;;;;;;;4.70;4.07;;;21.00;99.90;;;;;;5033919;28;20175;-80
2023/08/24 07:38:49;;;;;;;3.70;3.40;;;21.10;99.90;;;;;;5016558;28;20199;-80
2023/08/24 07:41:14;;;;;;;4.00;3.60;;;21.20;99.90;;;;;;5016466;28;20203;-80
2023/08/24 07:43:40;;;;;;;4.55;3.78;;;21.20;99.90;;;;;;5032097;28;20175;-80
2023/08/24 07:46:06;;;;;;;4.05;3.40;;;21.30;99.90;;;;;;5032794;28;20198;-80
2023/08/24 07:48:31;;;;;;;4.18;3.70;;;21.30;99.90;;;;;;5032693;28;20681;-80
2023/08/24 07:50:57;;;;;;;3.70;3.40;;;21.30;99.90;;;;;;5032964;28;20534;-81
2023/08/24 07:53:22;;;;;;;4.72;3.70;;;21.30;99.90;;;;;;5032501;28;20217;-80
2023/08/24 07:55:48;;;;;;;3.95;3.50;;;21.50;99.90;;;;;;5014982;28;20208;-80
2023/08/24 07:58:13;;;;;;;5.65;3.53;;;21.50;99.90;;;;;;5032424;28;20703;-80
2023/08/24 08:00:39;;;;;;;10.13;4.30;;;21.60;99.90;;;;;;5032813;28;20268;-80
2023/08/24 08:03:05;;;;;;;16.85;4.47;;;21.70;99.90;;;;;;5014537;28;20657;-80
2023/08/24 08:05:30;;;;;;;16.15;4.40;;;21.70;99.90;;;;;;5032435;28;20205;-80
2023/08/24 08:07:56;;;;;;;25.52;6.13;;;22.00;99.90;;;;;;5014484;28;20202;-80
2023/08/24 08:10:22;;;;;;;7.70;4.18;;;22.30;99.90;;;;;;5014967;28;20175;-80
2023/08/24 08:12:47;;;;;;;5.85;4.05;;;22.40;99.90;;;;;;5014655;28;20213;-80
2023/08/24 08:15:13;;;;;;;6.78;4.15;;;22.50;99.90;;;;;;5032471;28;20198;-80
2023/08/24 08:17:39;;;;;;;6.53;3.58;;;22.70;99.90;;;;;;5032642;28;20185;-80
2023/08/24 08:20:05;;;;;;;4.13;3.67;;;22.80;99.90;;;;;;5032632;28;20181;-80
2023/08/24 08:22:35;;;;;;;4.10;3.70;;;22.80;99.30;;;;;;5032369;28;20179;-80
2023/08/24 08:25:01;;;;;;;3.47;3.00;;;22.60;95.20;;;;;;5014747;28;20206;-80
2023/08/24 08:27:27;;;;;;;4.03;3.63;;;22.60;97.40;;;;;;5014820;28;20175;-80
2023/08/24 08:29:52;;;;;;;5.55;4.10;;;22.60;99.90;;;;;;5032377;28;20182;-80
2023/08/24 08:32:18;;;;;;;5.10;3.80;;;22.60;97.20;;;;;;5032160;28;20187;-80
2023/08/24 08:34:44;;;;;;;4.00;3.70;;;22.50;82.00;;;;;;5032277;28;20558;-80
2023/08/24 08:37:09;;;;;;;5.80;3.92;;;22.40;93.80;;;;;;5014431;28;20183;-80
2023/08/24 08:39:35;;;;;;;4.97;3.60;;;22.30;92.50;;;;;;5014263;28;20203;-80
2023/08/24 08:42:01;;;;;;;4.55;3.80;;;22.30;91.40;;;;;;5014441;28;20269;-80
2023/08/24 08:44:31;;;;;;;5.47;4.35;;;22.30;99.90;;;;;;5032191;28;20233;-80
2023/08/24 08:46:57;;;;;;;7.60;4.20;;;22.30;99.90;;;;;;5014004;28;20207;-80
2023/08/24 08:49:23;;;;;;;5.80;3.92;;;22.40;99.90;;;;;;5032094;28;20206;-80
2023/08/24 08:51:51;;;;;;;5.32;3.97;;;22.40;99.90;;;;;;5031717;28;20175;-81
2023/08/24 08:54:16;;;;;;;4.43;3.83;;;22.60;99.40;;;;;;5031433;28;20163;-81
2023/08/24 08:56:42;;;;;;;7.30;4.30;;;22.70;90.30;;;;;;5034606;28;20244;-81
2023/08/24 08:59:10;;;;;;;5.13;4.55;;;22.80;99.90;;;;;;5017776;28;20202;-80
2023/08/24 09:01:38;;;;;;;4.25;3.88;;;23.00;91.90;;;;;;5035928;28;20174;-80
2023/08/24 09:04:06;;;;;;;4.90;4.50;;;23.00;70.00;;;;;;5018214;28;20185;-81
2023/08/24 09:06:32;;;;;;;4.82;4.07;;;23.00;68.90;;;;;;5017872;28;20202;-81
2023/08/24 09:08:57;;;;;;;5.40;3.90;;;23.20;87.60;;;;;;5035858;28;20739;-80
2023/08/24 09:11:23;;;;;;;6.43;3.90;;;23.20;49.70;;;;;;5018153;28;20708;-80
2023/08/24 09:13:49;;;;;;;4.22;3.83;;;23.40;9.70;;;;;;5035446;28;20178;-80
2023/08/24 09:16:18;;;;;;;6.90;3.47;;;23.50;1.00;;;;;;5035806;28;20171;-81
2023/08/24 09:18:46;;;;;;;4.72;3.30;;;23.60;1.00;;;;;;5035943;28;20238;-81
2023/08/24 09:21:14;;;;;;;3.85;3.40;;;24.00;1.00;;;;;;5017476;28;20649;-80
2023/08/24 09:23:54;;;;;;;3.53;3.22;;;24.20;1.00;;;;;;5017661;28;20242;-81
2023/08/24 09:26:37;;;;;;;3.20;2.90;;;24.20;1.00;;;;;;5017363;28;20707;-81
2023/08/24 09:29:16;;;;;;;3.65;3.35;;;24.40;1.00;;;;;;5018201;28;20286;-81
2023/08/24 09:31:45;;;;;;;4.22;3.15;;;24.30;1.00;;;;;;5035301;28;20178;-81
2023/08/24 09:34:11;;;;;;;4.60;3.35;;;24.30;1.00;;;;;;5017648;28;20552;-81
2023/08/24 09:36:38;;;;;;;4.15;3.40;;;24.30;1.00;;;;;;5036428;28;20179;-82
2023/08/24 09:39:04;;;;;;;4.68;3.33;;;24.20;1.00;;;;;;5021858;28;20210;-83
2023/08/24 09:41:49;;;;;;;4.90;3.10;;;24.10;1.00;;;;;;5020832;28;20209;-83
2023/08/24 09:44:16;;;;;;;3.47;3.17;;;24.10;1.00;;;;;;5040131;28;20179;-83
2023/08/24 09:46:43;;;;;;;5.55;3.20;;;24.10;1.00;;;;;;5021155;28;20218;-82
2023/08/24 09:49:11;;;;;;;3.28;2.97;;;24.20;1.00;;;;;;5039516;28;20186;-81
2023/08/24 09:51:37;;;;;;;3.42;3.13;;;24.30;1.00;;;;;;5037363;28;20704;-81
2023/08/24 09:54:09;;;;;;;3.55;3.13;;;24.60;1.00;;;;;;5021575;28;20545;-83
2023/08/24 09:56:37;;;;;;;3.75;3.38;;;24.80;1.00;;;;;;5037277;28;20179;-81
2023/08/24 09:59:07;;;;;;;6.32;3.50;;;25.10;1.00;;;;;;5017549;28;20752;-81
2023/08/24 10:01:34;;;;;;;4.15;3.40;;;25.50;1.00;;;;;;5035513;28;20179;-81
2023/08/24 10:04:03;;;;;;;5.97;3.58;;;25.70;1.00;;;;;;5017210;28;20179;-81
2023/08/24 10:06:29;;;;;;;4.07;3.65;;;25.80;1.00;;;;;;5016599;28;20202;-81
2023/08/24 10:09:00;;;;;;;7.65;3.90;;;26.00;1.00;;;;;;5017030;28;20201;-81
2023/08/24 10:11:28;;;;;;;3.67;3.38;;;26.10;1.00;;;;;;5035347;28;20581;-81
2023/08/24 10:13:59;;;;;;;5.15;3.25;;;26.10;1.00;;;;;;5035263;28;20261;-81
2023/08/24 10:16:28;;;;;;;5.10;3.40;;;26.10;1.00;;;;;;5017778;28;20556;-81
2023/08/24 10:18:55;;;;;;;5.53;3.72;;;26.30;1.00;;;;;;5017846;28;20727;-81
2023/08/24 10:21:24;;;;;;;4.50;3.60;;;26.40;1.00;;;;;;5034713;28;20175;-81
2023/08/24 10:23:52;;;;;;;4.00;3.38;;;26.50;1.00;;;;;;5016795;28;20463;-81
2023/08/24 10:26:18;;;;;;;5.50;3.60;;;26.60;1.00;;;;;;5016668;28;20203;-81
2023/08/24 10:28:45;;;;;;;4.28;3.80;;;26.70;1.00;;;;;;5016644;28;20195;-81
2023/08/24 10:31:11;;;;;;;5.30;3.50;;;26.80;1.00;;;;;;5016307;28;20190;-81
2023/08/24 10:33:37;;;;;;;5.38;3.30;;;26.80;1.00;;;;;;5034318;28;20172;-81
2023/08/24 10:36:06;;;;;;;5.93;3.13;;;26.60;1.00;;;;;;5034272;28;20175;-81
2023/08/24 10:38:39;;;;;;;3.78;2.92;;;26.60;1.00;;;;;;5034344;28;20206;-82
2023/08/24 10:41:05;;;;;;;3.90;3.03;;;26.50;1.00;;;;;;5034364;28;20186;-81
2023/08/24 10:43:37;;;;;;;4.03;2.50;;;26.30;1.00;;;;;;5033902;28;20175;-81
2023/08/24 10:46:04;;;;;;;3.58;2.88;;;26.40;1.00;;;;;;5016461;28;20218;-81
2023/08/24 10:48:41;;;;;;;3.75;2.83;;;26.40;1.00;;;;;;5016271;28;20198;-81
2023/08/24 10:51:25;;;;;;;4.03;2.92;;;26.40;1.00;;;;;;5016283;28;20175;-81
2023/08/24 10:53:53;;;;;;;3.33;2.70;;;26.40;1.00;;;;;;5016417;28;20183;-81
2023/08/24 10:56:20;;;;;;;2.90;2.60;;;26.30;1.00;;;;;;5016412;28;20703;-81
2023/08/24 10:58:47;;;;;;;3.28;2.97;;;26.30;1.00;;;;;;5016133;28;20215;-81
2023/08/24 11:01:17;;;;;;;3.45;2.92;;;26.30;1.00;;;;;;5016238;28;20211;-81
2023/08/24 11:03:50;;;;;;;4.78;2.88;;;26.20;1.00;;;;;;5034079;28;20361;-81
2023/08/24 11:06:21;;;;;;;3.95;2.88;;;26.30;1.00;;;;;;5015884;28;20203;-81
2023/08/24 11:09:04;;;;;;;2.85;2.55;;;26.30;1.00;;;;;;5015571;28;20684;-81
2023/08/24 11:11:30;;;;;;;4.10;2.80;;;26.50;1.00;;;;;;5033727;28;20663;-81
2023/08/24 11:14:16;;;;;;;4.07;2.72;;;26.60;1.00;;;;;;5016131;28;20178;-81
2023/08/24 11:16:46;;;;;;;3.08;2.80;;;26.60;1.00;;;;;;5015816;28;20653;-81
2023/08/24 11:19:12;;;;;;;3.25;2.92;;;26.50;1.00;;;;;;5033172;28;20199;-81
2023/08/24 11:21:39;;;;;;;5.97;2.72;;;26.50;1.00;;;;;;5033730;28;20186;-81
2023/08/24 11:24:06;;;;;;;4.00;2.80;;;26.60;1.00;;;;;;5015442;28;20182;-81
2023/08/24 11:26:31;;;;;;;4.07;2.58;;;26.90;1.00;;;;;;5033492;28;20207;-82
2023/08/24 11:28:57;;;;;;;3.38;2.63;;;27.10;1.00;;;;;;5033283;28;20713;-81
2023/08/24 11:31:27;;;;;;;3.85;3.00;;;27.40;1.00;;;;;;5015972;28;20202;-81
2023/08/24 11:33:56;;;;;;;3.75;3.00;;;27.80;1.00;;;;;;5033117;28;20651;-81
2023/08/24 11:36:23;;;;;;;3.47;2.85;;;27.90;1.00;;;;;;5015549;28;20182;-81
2023/08/24 11:38:52;;;;;;;4.80;2.70;;;28.00;1.00;;;;;;5015453;28;20214;-81
2023/08/24 11:41:19;;;;;;;4.15;3.00;;;28.00;1.00;;;;;;5015230;28;20206;-81
2023/08/24 11:43:46;;;;;;;2.97;2.63;;;28.00;1.00;;;;;;5033599;28;20178;-81
2023/08/24 11:46:12;;;;;;;2.88;2.55;;;28.10;99.90;;;;;;5015103;28;20211;-81
2023/08/24 11:48:39;;;;;;;4.50;2.40;;;28.50;99.90;;;;;;5015188;28;20195;-81
2023/08/24 11:51:08;;;;;;;5.93;2.90;;;28.60;99.90;;;;;;5015219;28;20262;-82
2023/08/24 11:53:37;;;;;;;4.70;2.60;;;28.60;99.90;;;;;;5014977;28;20175;-83
2023/08/24 11:56:03;;;;;;;3.20;2.70;;;28.60;1.00;;;;;;5032558;28;20171;-82
2023/08/24 11:58:28;;;;;;;3.20;2.60;;;28.90;1.00;;;;;;5015684;28;20195;-82
2023/08/24 12:00:54;;;;;;;2.85;2.30;;;28.90;1.00;;;;;;5015534;28;20183;-81
2023/08/24 12:03:19;;;;;;;3.33;2.75;;;28.90;1.00;;;;;;5033011;28;20213;-81
2023/08/24 12:05:45;;;;;;;3.53;2.83;;;28.70;1.00;;;;;;5033073;28;20684;-81
2023/08/24 12:08:12;;;;;;;3.88;2.70;;;28.50;1.00;;;;;;5032556;28;20194;-81
2023/08/24 12:10:42;;;;;;;3.63;2.67;;;28.40;1.00;;;;;;5032977;28;20167;-81
2023/08/24 12:13:09;;;;;;;5.57;2.60;;;28.10;1.00;;;;;;5032880;28;20182;-81
2023/08/24 12:15:36;;;;;;;3.55;2.63;;;27.90;1.00;;;;;;5015232;28;20205;-81
2023/08/24 12:18:11;;;;;;;5.63;2.40;;;28.00;1.00;;;;;;5032827;28;20541;-82
2023/08/24 12:20:38;;;;;;;3.92;2.50;;;27.90;1.00;;;;;;5032839;28;20175;-81
2023/08/24 12:23:04;;;;;;;2.80;2.30;;;27.80;1.00;;;;;;5032800;28;20229;-82
2023/08/24 12:25:29;;;;;;;3.13;2.75;;;27.80;1.00;;;;;;5032496;28;20191;-81
2023/08/24 12:28:11;;;;;;;3.42;2.50;;;27.90;1.00;;;;;;5014976;28;20191;-81
2023/08/24 12:30:50;;;;;;;2.88;2.58;;;27.80;1.00;;;;;;5034410;28;20167;-81
2023/08/24 12:33:27;;;;;;;3.90;2.53;;;27.80;1.00;;;;;;5036624;28;20183;-82
2023/08/24 12:35:55;;;;;;;4.07;2.30;;;27.80;1.00;;;;;;5019107;28;20179;-81
2023/08/24 12:38:21;;;;;;;4.35;2.53;;;27.90;1.00;;;;;;5018641;28;20281;-81
2023/08/24 12:40:46;;;;;;;3.45;2.20;;;28.00;1.00;;;;;;5036469;28;20560;-81
2023/08/24 12:43:12;;;;;;;4.03;2.28;;;27.80;1.00;;;;;;5036165;28;20185;-81
2023/08/24 12:45:38;;;;;;;4.22;2.38;;;27.80;1.00;;;;;;5036267;28;20214;-82
2023/08/24 12:48:04;;;;;;;2.83;2.53;;;27.60;1.00;;;;;;5018495;28;20198;-81
2023/08/24 12:50:30;;;;;;;4.30;2.30;;;27.70;1.00;;;;;;5036398;28;20171;-81
2023/08/24 12:52:59;;;;;;;3.72;2.05;;;27.70;1.00;;;;;;5018438;28;20183;-81